Terminal Aerodrome Forecast
Issued by NWS Mt. Holly, NJ

Home | Current Version | Previous Version | Text Only | Print | Product List | Glossary On
Versions: 1 2 3 4 5 6 7 8 9 10 11 12 13
000
FTUS41 KPHI 302300 RRA
TAFILG
TAF
KILG 302341Z 3100/3124 15008KT P6SM BKN040
     FM310700 18005KT P6SM BKN015 BKN035
     FM310900 19004KT 5SM BR BKN009 OVC015
     FM311400 20007KT P6SM BKN020 BKN100
     FM311600 20010G18KT P6SM VCSH BKN035 BKN100
     FM312300 21010KT P6SM SHRA SCT025 BKN035=

USA.gov is the U.S. government's official web portal to all federal, state and local government web resources and services.